KMGE

Dobbins Air Reserve Base

Airport
ICAO code
KMGE
IATA Code
MGE
Summary
ICAO Region
NAM
ICAO Territory
Location

Marietta, Georgia

Serving
Marietta
Elevation
1068 ft
Coordinates
33° 54' 55" N , 84° 30' 59" W
KCC
Metar
KMGE 152055Z AUTO 00000KT 10SM CLR 34/16 A2995 RMK AO2 SLP129 60000 T03430161 57014 $

Dobbins Air Reserve Base or Dobbins ARB is a United States Air Force reserve air base located in Marietta, Georgia about 20 miles northwest of Atlanta.

Runways

Designator Length Width Surface Rops
110/290 1219 18 ASPH No/No
11/29 3048 91 CON Yes/Yes

Airport map

Aerial View

SKYbrary Partners:

Safety knowledge contributed by: